Aérodrome :
LOGIN :

S'inscrire | Disclaimer

   EN    FR    IT 

 










Légende :    VFR   VFR Marginal   IFR   IFR Intensif   IFR Très Intensif
Visi : 
Plafond : 
>= 8 km
>= 3000ft
5 à 8 km
1000 à 3000 ft
1500m à 5 km
500 à 1000 ft
800 à 1500m
200 à 500 ft
< 800m
< 200 ft
Symboles :   Orages  Brouillard  Fortes neiges  Fortes précipitations  Vent > 20 kt
SIGMETs :   Divers  Orages  Givrage  Turbulence  Onde Orograph.  Cendres Volcan.






- Altitude de l'aérodrome : 52 ft
- Code IATA : IOM


EGNS - Isle of Man

DERNIER METAR :
  • 250450Z 24011KT 9999 FEW011 BKN015 07/05 Q1015

METARs EXPIRÉS :
  • 250350Z 23010KT 9999 BKN014 07/05 Q1015
  • 250250Z 22011KT 9999 SCT010 BKN015 07/05 Q1016

TAF TAF EGNS
Valide du 25 à 06h jusqu'au 25 à 15h UTC


250500Z 2506/2515 23007KT 9999 FEW010 BKN015
BECMG 2506/2509 21017KT
TEMPO 2506/2515 7000 -RADZ SCT005 BKN010
PROB40
TEMPO 2506/2515 3000 RADZ BKN005



MET'MAP, la Météo Aéronautique d'un coup d'oeil ! - Copyright ORBIFLY Décembre 2007 - Disclaimer

ORBIFLY MET'MAP TEAM :

Programmation & Développement : Alexandra Zaïnal
Sur une idée originale de : Baudouin d'Aumeries
Assistance à la programmation : Marc-Olivier Méhu
Soutien technique & logistique : Manuel Goepfert

Contact : metmap@orbifly.com




SOURCES & CREDITS :

   NOAA